Terminal Aerodrome Forecast
Issued by NWS Upton, NY

Home | Current Version | Previous Version | Text Only | Print | Product List | Glossary On
Versions: 1 2 3 4 5 6 7 8 9 10 11 12 13 14 15 16 17 18 19 20 21 22 23 24 25 26 27 28
000
FTUS41 KOKX 020200 AAB
TAFEWR
TAF AMD
KEWR 020230Z 0203/0306 VRB03KT 3SM -FZRASNPL OVC008
     FM020500 25005KT 4SM BR OVC008
     FM020900 27008KT P6SM SCT010 BKN020
     FM021200 30013G20KT P6SM SCT025 BKN050
     FM021400 30017G25KT P6SM FEW050 SCT250
     FM030000 30013KT P6SM SCT250=

USA.gov is the U.S. government's official web portal to all federal, state and local government web resources and services.